createdAt,value
2018-03-25T00:01:51.971Z,-0.40
2018-03-25T00:04:20.346Z,-0.50
2018-03-25T00:06:49.456Z,-0.50
2018-03-25T00:09:17.811Z,-0.50
2018-03-25T00:11:46.116Z,-0.50
2018-03-25T00:14:15.258Z,-0.40
2018-03-25T00:16:43.640Z,-0.40
2018-03-25T00:19:12.759Z,-0.50
2018-03-25T00:21:41.839Z,-0.40
2018-03-25T00:24:10.284Z,-0.40
2018-03-25T00:26:38.586Z,-0.40
2018-03-25T00:29:06.891Z,-0.30
2018-03-25T00:31:36.006Z,-0.40
2018-03-25T00:34:05.119Z,-0.40
2018-03-25T00:36:33.427Z,-0.40
2018-03-25T00:39:02.124Z,-0.40
2018-03-25T00:41:30.815Z,-0.40
2018-03-25T00:44:00.462Z,-0.40
2018-03-25T00:46:29.180Z,-0.50
2018-03-25T00:48:57.746Z,-0.50
2018-03-25T00:51:27.647Z,-0.60
2018-03-25T00:53:56.716Z,-0.70
2018-03-25T00:56:26.476Z,-0.80
2018-03-25T00:58:55.061Z,-0.80
2018-03-25T01:01:23.688Z,-0.70
2018-03-25T01:03:53.237Z,-0.70
2018-03-25T01:06:22.636Z,-0.70
2018-03-25T01:08:51.159Z,-0.80
2018-03-25T01:11:19.471Z,-0.70
2018-03-25T01:13:47.827Z,-0.70
2018-03-25T01:16:16.339Z,-0.70
2018-03-25T01:18:44.817Z,-0.70
2018-03-25T01:21:14.031Z,-0.70
2018-03-25T01:23:43.515Z,-0.70
2018-03-25T01:26:11.827Z,-0.70
2018-03-25T01:28:40.155Z,-0.70
2018-03-25T01:31:08.498Z,-0.70
2018-03-25T01:33:36.843Z,-0.70
2018-03-25T01:36:05.147Z,-0.80
2018-03-25T01:38:33.599Z,-0.90
2018-03-25T01:41:01.909Z,-0.90
2018-03-25T01:43:30.302Z,-0.90
2018-03-25T01:45:59.562Z,-0.80
2018-03-25T01:48:27.967Z,-0.80
2018-03-25T01:50:56.415Z,-0.80
2018-03-25T01:53:24.844Z,-0.80
2018-03-25T01:55:53.268Z,-0.90
2018-03-25T01:58:21.611Z,-0.90
2018-03-25T02:00:50.326Z,-0.90
2018-03-25T02:03:18.639Z,-0.90
2018-03-25T02:05:47.721Z,-1.00
2018-03-25T02:08:16.079Z,-1.00
2018-03-25T02:10:45.154Z,-1.10
2018-03-25T02:13:13.496Z,-1.10
2018-03-25T02:15:41.852Z,-1.10
2018-03-25T02:18:10.146Z,-1.10
2018-03-25T02:20:38.455Z,-1.10
2018-03-25T02:23:06.795Z,-1.00
2018-03-25T02:25:35.994Z,-1.00
2018-03-25T02:28:04.286Z,-1.00
2018-03-25T02:30:32.633Z,-1.00
2018-03-25T02:33:01.703Z,-0.90
2018-03-25T02:35:30.037Z,-0.90
2018-03-25T02:37:59.199Z,-1.10
2018-03-25T02:40:27.820Z,-1.10
2018-03-25T02:42:56.392Z,-1.00
2018-03-25T02:45:24.875Z,-1.10
2018-03-25T02:47:54.269Z,-0.90
2018-03-25T02:50:22.704Z,-1.00
2018-03-25T02:52:51.110Z,-0.90
2018-03-25T02:55:19.447Z,-0.80
2018-03-25T02:57:48.110Z,-0.90
2018-03-25T03:00:16.412Z,-0.80
2018-03-25T03:02:45.107Z,-0.70
2018-03-25T03:05:13.831Z,-0.70
2018-03-25T03:07:42.997Z,-0.70
2018-03-25T03:10:11.542Z,-0.50
2018-03-25T03:12:39.878Z,-0.30
2018-03-25T03:15:08.222Z,-0.40
2018-03-25T03:17:36.524Z,-0.40
2018-03-25T03:20:04.860Z,-0.40
2018-03-25T03:22:33.159Z,-0.40
2018-03-25T03:25:01.806Z,-0.50
2018-03-25T03:27:30.231Z,-0.40
2018-03-25T03:29:58.927Z,-0.20
2018-03-25T03:32:28.236Z,-0.10
2018-03-25T03:34:57.208Z,-0.10
2018-03-25T03:37:25.840Z,0.00
2018-03-25T03:39:54.522Z,-0.20
2018-03-25T03:42:22.953Z,-0.50
2018-03-25T03:44:51.330Z,-0.50
2018-03-25T03:47:19.691Z,-0.30
2018-03-25T03:49:48.030Z,-0.30
2018-03-25T03:52:16.355Z,-0.30
2018-03-25T03:54:44.811Z,-0.30
2018-03-25T03:57:14.099Z,-0.50
2018-03-25T03:59:42.466Z,-0.50
2018-03-25T04:02:10.876Z,-0.50
2018-03-25T04:04:39.209Z,-0.50
2018-03-25T04:07:07.521Z,-0.60
2018-03-25T04:09:35.859Z,-0.70
2018-03-25T04:12:05.524Z,-0.40
2018-03-25T04:14:33.858Z,-0.40
2018-03-25T04:17:02.192Z,-0.30
2018-03-25T04:19:30.770Z,-0.30
2018-03-25T04:21:59.220Z,-0.40
2018-03-25T04:24:29.775Z,-0.70
2018-03-25T04:26:58.374Z,-0.70
2018-03-25T04:29:27.226Z,-0.70
2018-03-25T04:31:56.008Z,-0.80
2018-03-25T04:34:24.999Z,-0.90
2018-03-25T04:36:54.327Z,-0.90
2018-03-25T04:39:23.548Z,-1.00
2018-03-25T04:41:51.943Z,-1.10
2018-03-25T04:44:20.323Z,-1.10
2018-03-25T04:46:48.621Z,-1.30
2018-03-25T04:49:16.926Z,-1.50
2018-03-25T04:51:45.450Z,-1.60
2018-03-25T04:54:14.654Z,-1.50
2018-03-25T04:56:43.571Z,-1.50
2018-03-25T04:59:11.870Z,-1.50
2018-03-25T05:01:40.170Z,-1.50
2018-03-25T05:04:08.514Z,-1.50
2018-03-25T05:06:36.806Z,-1.50
2018-03-25T05:09:05.159Z,-1.60
2018-03-25T05:11:33.467Z,-1.60
2018-03-25T05:14:01.806Z,-1.60
2018-03-25T05:16:30.414Z,-1.60
2018-03-25T05:18:59.835Z,-1.60
2018-03-25T05:21:28.278Z,-1.60
2018-03-25T05:23:56.751Z,-1.70
2018-03-25T05:26:25.355Z,-1.60
2018-03-25T05:28:54.588Z,-1.50
2018-03-25T05:31:22.907Z,-1.50
2018-03-25T05:33:51.306Z,-1.50
2018-03-25T05:36:19.652Z,-1.30
2018-03-25T05:38:47.993Z,-1.20
2018-03-25T05:41:16.290Z,-1.00
2018-03-25T05:43:44.749Z,-1.10
2018-03-25T05:46:13.458Z,-1.10
2018-03-25T05:48:41.823Z,-1.10
2018-03-25T05:51:10.164Z,-1.00
2018-03-25T05:53:38.454Z,-0.70
2018-03-25T05:56:06.795Z,-0.60
2018-03-25T05:58:35.862Z,-0.30
2018-03-25T06:01:04.200Z,-0.30
2018-03-25T06:03:32.498Z,-0.20
2018-03-25T06:06:00.828Z,0.00
2018-03-25T06:08:30.035Z,0.10
2018-03-25T06:10:58.477Z,0.10
2018-03-25T06:13:26.941Z,0.20
2018-03-25T06:15:56.326Z,0.30
2018-03-25T06:18:24.959Z,0.30
2018-03-25T06:20:53.631Z,0.40
2018-03-25T06:23:22.696Z,0.50
2018-03-25T06:25:51.081Z,0.40
2018-03-25T06:28:19.448Z,0.60
2018-03-25T06:30:47.790Z,0.80
2018-03-25T06:33:16.082Z,0.90
2018-03-25T06:35:44.494Z,0.90
2018-03-25T06:38:12.913Z,1.00
2018-03-25T06:40:42.119Z,1.10
2018-03-25T06:43:10.487Z,1.10
2018-03-25T06:45:38.810Z,1.20
2018-03-25T06:48:07.355Z,1.50
2018-03-25T06:50:35.659Z,1.50
2018-03-25T06:53:04.032Z,1.60
2018-03-25T06:55:32.362Z,1.50
2018-03-25T06:58:00.662Z,1.70
2018-03-25T07:00:29.959Z,1.80
2018-03-25T07:02:58.299Z,2.00
2018-03-25T07:05:26.731Z,2.30
2018-03-25T07:07:55.151Z,2.60
2018-03-25T07:10:23.692Z,2.80
2018-03-25T07:12:52.001Z,2.90
2018-03-25T07:15:20.294Z,3.10
2018-03-25T07:17:48.618Z,3.20
2018-03-25T07:20:16.905Z,3.40
2018-03-25T07:22:45.235Z,3.60
2018-03-25T07:25:13.602Z,3.90
2018-03-25T07:27:42.058Z,4.20
2018-03-25T07:30:10.388Z,4.30
2018-03-25T07:32:38.687Z,4.40
2018-03-25T07:35:08.110Z,4.70
2018-03-25T07:37:36.425Z,5.00
2018-03-25T07:40:04.715Z,5.20
2018-03-25T07:42:33.263Z,5.40
2018-03-25T07:45:02.361Z,5.80
2018-03-25T07:47:30.641Z,5.80
2018-03-25T07:49:59.119Z,6.00
2018-03-25T07:52:27.703Z,6.10
2018-03-25T07:54:56.826Z,6.40
2018-03-25T07:57:25.213Z,6.40
2018-03-25T07:59:54.627Z,6.50
2018-03-25T08:02:22.990Z,6.70
2018-03-25T08:04:52.092Z,6.90
2018-03-25T08:07:20.424Z,6.90
2018-03-25T08:09:49.474Z,7.00
2018-03-25T08:12:17.803Z,7.00
2018-03-25T08:14:46.122Z,7.10
2018-03-25T08:17:14.415Z,7.30
2018-03-25T08:19:42.724Z,7.30
2018-03-25T08:22:11.247Z,7.30
2018-03-25T08:24:40.318Z,7.50
2018-03-25T08:27:08.605Z,7.50
2018-03-25T08:29:36.934Z,7.70
2018-03-25T08:32:05.226Z,7.70
2018-03-25T08:34:33.583Z,7.60
2018-03-25T08:37:02.638Z,7.50
2018-03-25T08:39:30.960Z,7.50
2018-03-25T08:42:00.310Z,7.60
2018-03-25T08:44:29.414Z,7.80
2018-03-25T08:46:57.711Z,7.80
2018-03-25T08:49:26.074Z,7.80
2018-03-25T08:51:55.019Z,8.00
2018-03-25T08:54:24.339Z,8.00
2018-03-25T08:56:52.791Z,8.10
2018-03-25T08:59:21.115Z,8.20
2018-03-25T09:01:50.214Z,8.10
2018-03-25T09:04:19.273Z,8.50
2018-03-25T09:06:47.595Z,8.50
2018-03-25T09:09:15.943Z,8.60
2018-03-25T09:11:45.046Z,8.80
2018-03-25T09:14:13.367Z,8.80
2018-03-25T09:16:42.426Z,9.20
2018-03-25T09:19:10.750Z,9.20
2018-03-25T09:21:39.047Z,9.30
2018-03-25T09:24:07.663Z,9.50
2018-03-25T09:26:35.952Z,9.50
2018-03-25T09:29:04.254Z,9.40
2018-03-25T09:31:32.583Z,9.40
2018-03-25T09:34:00.875Z,9.40
2018-03-25T09:36:29.194Z,9.40
2018-03-25T09:38:57.488Z,9.50
2018-03-25T09:41:25.824Z,9.60
2018-03-25T09:43:54.173Z,9.70
2018-03-25T09:46:22.538Z,9.70
2018-03-25T09:48:50.870Z,9.80
2018-03-25T09:51:19.194Z,10.10
2018-03-25T09:53:47.494Z,10.30
2018-03-25T09:56:15.799Z,10.00
2018-03-25T09:58:44.139Z,9.90
2018-03-25T10:01:15.574Z,10.10
2018-03-25T10:03:43.875Z,10.20
2018-03-25T10:06:12.371Z,10.10
2018-03-25T10:08:40.763Z,10.40
2018-03-25T10:11:09.051Z,10.40
2018-03-25T10:13:37.395Z,10.60
2018-03-25T10:16:05.690Z,10.40
2018-03-25T10:18:34.033Z,10.50
2018-03-25T10:21:04.034Z,10.60
2018-03-25T10:23:32.354Z,10.50
2018-03-25T10:26:01.096Z,10.70
2018-03-25T10:28:30.395Z,10.70
2018-03-25T10:30:58.687Z,10.60
2018-03-25T10:33:27.042Z,10.30
2018-03-25T10:35:55.406Z,10.40
2018-03-25T10:38:23.817Z,10.50
2018-03-25T10:40:52.207Z,10.50
2018-03-25T10:43:20.547Z,10.30
2018-03-25T10:45:48.838Z,10.40
2018-03-25T10:48:17.298Z,10.50
2018-03-25T10:50:45.594Z,10.50
2018-03-25T10:53:13.885Z,10.50
2018-03-25T10:55:42.469Z,10.60
2018-03-25T10:58:10.778Z,10.40
2018-03-25T11:00:39.087Z,10.70
2018-03-25T11:03:07.427Z,11.00
2018-03-25T11:05:36.662Z,11.10
2018-03-25T11:08:05.004Z,10.90
2018-03-25T11:10:33.650Z,11.10
2018-03-25T11:13:01.955Z,11.30
2018-03-25T11:15:31.766Z,11.20
2018-03-25T11:18:00.579Z,11.20
2018-03-25T11:20:29.219Z,11.10
2018-03-25T11:22:57.518Z,11.00
2018-03-25T11:25:25.852Z,11.10
2018-03-25T11:27:54.962Z,11.30
2018-03-25T11:30:24.116Z,11.30
2018-03-25T11:32:52.532Z,11.30
2018-03-25T11:35:20.827Z,11.10
2018-03-25T11:37:49.158Z,11.10
2018-03-25T11:40:17.466Z,11.30
2018-03-25T11:42:46.531Z,11.60
2018-03-25T11:45:15.636Z,11.50
2018-03-25T11:47:44.702Z,11.60
2018-03-25T11:50:12.999Z,11.60
2018-03-25T11:52:41.334Z,11.60
2018-03-25T11:55:09.638Z,11.60
2018-03-25T11:57:38.018Z,11.60
2018-03-25T12:00:06.352Z,11.70
2018-03-25T12:02:34.660Z,11.90
2018-03-25T12:05:03.000Z,12.10
2018-03-25T12:07:32.297Z,11.90
2018-03-25T12:10:02.110Z,11.90
2018-03-25T12:12:30.438Z,11.90
2018-03-25T12:14:59.558Z,11.90
2018-03-25T12:17:27.843Z,11.90
2018-03-25T12:19:56.195Z,11.90
2018-03-25T12:22:24.548Z,12.00
2018-03-25T12:24:53.137Z,11.90
2018-03-25T12:27:21.481Z,11.70
2018-03-25T12:29:50.874Z,11.90
2018-03-25T12:32:19.170Z,11.90
2018-03-25T12:34:47.468Z,12.00
2018-03-25T12:37:15.789Z,12.00
2018-03-25T12:39:44.090Z,12.20
2018-03-25T12:42:12.687Z,12.20
2018-03-25T12:44:41.183Z,12.10
2018-03-25T12:47:10.203Z,12.30
2018-03-25T12:49:38.538Z,12.30
2018-03-25T12:52:06.835Z,12.40
2018-03-25T12:54:35.147Z,12.40
2018-03-25T12:57:03.489Z,12.50
2018-03-25T12:59:31.816Z,12.40
2018-03-25T13:02:00.108Z,12.40
2018-03-25T13:04:29.416Z,12.20
2018-03-25T13:06:57.738Z,12.20
2018-03-25T13:09:26.341Z,12.20
2018-03-25T13:11:54.667Z,12.10
2018-03-25T13:14:23.439Z,12.20
2018-03-25T13:16:51.797Z,12.20
2018-03-25T13:19:20.087Z,12.20
2018-03-25T13:21:48.410Z,12.30
2018-03-25T13:24:16.727Z,12.40
2018-03-25T13:26:45.830Z,12.10
2018-03-25T13:29:14.894Z,12.10
2018-03-25T13:31:43.282Z,12.10
2018-03-25T13:34:11.628Z,12.10
2018-03-25T13:36:39.963Z,12.20
2018-03-25T13:39:08.268Z,12.40
2018-03-25T13:41:37.362Z,12.20
2018-03-25T13:44:05.679Z,12.20
2018-03-25T13:46:34.025Z,12.10
2018-03-25T13:51:37.218Z,12.00
2018-03-25T13:54:05.525Z,11.90
2018-03-25T13:56:33.826Z,11.90
2018-03-25T13:59:02.167Z,12.00
2018-03-25T14:01:31.261Z,11.80
2018-03-25T14:03:59.611Z,11.80
2018-03-25T14:06:27.929Z,12.00
2018-03-25T14:08:56.301Z,12.10
2018-03-25T14:11:25.579Z,12.10
2018-03-25T14:13:53.966Z,12.10
2018-03-25T14:16:23.295Z,12.00
2018-03-25T14:18:51.611Z,11.90
2018-03-25T14:21:19.963Z,12.10
2018-03-25T14:23:49.017Z,12.30
2018-03-25T14:26:17.648Z,12.20
2018-03-25T14:28:45.986Z,12.40
2018-03-25T14:31:14.349Z,12.60
2018-03-25T14:33:42.847Z,12.50
2018-03-25T14:36:11.138Z,12.50
2018-03-25T14:38:39.483Z,12.60
2018-03-25T14:41:07.778Z,12.60
2018-03-25T14:43:36.375Z,12.60
2018-03-25T14:46:04.674Z,12.60
2018-03-25T14:48:32.977Z,12.60
2018-03-25T14:51:01.311Z,12.70
2018-03-25T14:53:30.416Z,12.90
2018-03-25T14:55:58.850Z,12.80
2018-03-25T14:58:27.955Z,12.60
2018-03-25T15:00:57.054Z,12.40
2018-03-25T15:03:25.394Z,12.40
2018-03-25T15:05:53.753Z,12.30
2018-03-25T15:08:22.055Z,12.30
2018-03-25T15:10:50.383Z,12.30
2018-03-25T15:13:19.451Z,12.20
2018-03-25T15:15:47.786Z,12.20
2018-03-25T15:18:16.082Z,12.20
2018-03-25T15:20:44.401Z,12.10
2018-03-25T15:23:13.503Z,11.90
2018-03-25T15:25:41.914Z,11.80
2018-03-25T15:28:10.259Z,11.70
2018-03-25T15:30:38.682Z,11.60
2018-03-25T15:33:07.123Z,11.50
2018-03-25T15:35:35.459Z,11.30
2018-03-25T15:38:04.531Z,11.30
2018-03-25T15:40:33.156Z,11.20
2018-03-25T15:43:01.473Z,11.30
2018-03-25T15:45:30.542Z,11.20
2018-03-25T15:47:58.875Z,11.10
2018-03-25T15:50:27.347Z,11.10
2018-03-25T15:52:55.690Z,11.10
2018-03-25T15:55:24.830Z,11.00
2018-03-25T15:57:54.006Z,11.00
2018-03-25T16:00:22.319Z,10.90
2018-03-25T16:02:50.719Z,11.00
2018-03-25T16:05:19.018Z,11.00
2018-03-25T16:10:22.394Z,11.00
2018-03-25T16:12:50.723Z,11.00
2018-03-25T16:15:19.020Z,10.90
2018-03-25T16:17:47.322Z,10.90
2018-03-25T16:20:15.660Z,10.80
2018-03-25T16:22:43.998Z,10.90
2018-03-25T16:25:12.396Z,10.90
2018-03-25T16:27:40.722Z,11.00
2018-03-25T16:30:09.888Z,10.80
2018-03-25T16:32:38.995Z,10.70
2018-03-25T16:35:08.072Z,10.60
2018-03-25T16:37:36.409Z,10.60
2018-03-25T16:40:05.531Z,10.60
2018-03-25T16:42:35.948Z,10.50
2018-03-25T16:45:04.246Z,10.50
2018-03-25T16:47:32.579Z,10.40
2018-03-25T16:50:01.032Z,10.30
2018-03-25T16:52:29.379Z,10.20
2018-03-25T16:54:57.864Z,10.10
2018-03-25T16:57:26.268Z,10.00
2018-03-25T16:59:54.663Z,9.80
2018-03-25T17:02:22.972Z,9.70
2018-03-25T17:04:51.377Z,9.50
2018-03-25T17:07:19.683Z,9.40
2018-03-25T17:09:48.017Z,9.10
2018-03-25T17:12:16.307Z,8.90
2018-03-25T17:14:44.635Z,8.60
2018-03-25T17:17:13.764Z,8.30
2018-03-25T17:19:42.212Z,8.20
2018-03-25T17:22:10.630Z,8.20
2018-03-25T17:24:39.390Z,8.10
2018-03-25T17:27:08.508Z,7.90
2018-03-25T17:29:36.835Z,7.90
2018-03-25T17:32:05.192Z,7.90
2018-03-25T17:34:33.762Z,7.90
2018-03-25T17:37:02.046Z,7.70
2018-03-25T17:39:30.343Z,7.50
2018-03-25T17:41:58.700Z,7.40
2018-03-25T17:44:26.988Z,7.40
2018-03-25T17:46:56.210Z,7.10
2018-03-25T17:49:24.624Z,7.10
2018-03-25T17:51:52.989Z,7.00
2018-03-25T17:54:21.317Z,6.70
2018-03-25T17:56:49.642Z,6.60
2018-03-25T17:59:18.698Z,6.40
2018-03-25T18:01:47.019Z,6.40
2018-03-25T18:04:15.720Z,6.30
2018-03-25T18:06:44.054Z,6.20
2018-03-25T18:09:14.832Z,6.00
2018-03-25T18:11:43.154Z,6.00
2018-03-25T18:14:12.249Z,5.80
2018-03-25T18:16:40.546Z,5.80
2018-03-25T18:19:08.877Z,5.70
2018-03-25T18:21:37.974Z,5.60
2018-03-25T18:24:06.292Z,5.60
2018-03-25T18:26:35.388Z,5.30
2018-03-25T18:29:04.689Z,5.30
2018-03-25T18:31:33.011Z,5.20
2018-03-25T18:34:01.307Z,5.20
2018-03-25T18:36:29.636Z,5.10
2018-03-25T18:38:58.104Z,5.10
2018-03-25T18:41:26.458Z,5.00
2018-03-25T18:43:54.991Z,5.00
2018-03-25T18:46:24.187Z,4.90
2018-03-25T18:48:52.560Z,4.90
2018-03-25T18:51:21.046Z,4.80
2018-03-25T18:53:49.370Z,4.60
2018-03-25T18:56:17.669Z,4.50
2018-03-25T18:58:45.987Z,4.40
2018-03-25T19:01:14.279Z,4.40
2018-03-25T19:03:42.636Z,4.40
2018-03-25T19:06:10.955Z,4.30
2018-03-25T19:08:39.483Z,4.30
2018-03-25T19:11:08.575Z,4.20
2018-03-25T19:13:36.867Z,4.20
2018-03-25T19:16:05.198Z,4.20
2018-03-25T19:18:33.483Z,4.20
2018-03-25T19:21:01.789Z,4.20
2018-03-25T19:23:30.125Z,4.20
2018-03-25T19:25:58.499Z,4.20
2018-03-25T19:28:26.895Z,4.20
2018-03-25T19:30:55.419Z,4.20
2018-03-25T19:33:23.914Z,4.20
2018-03-25T19:35:53.256Z,4.10
2018-03-25T19:38:21.587Z,4.10
2018-03-25T19:40:50.645Z,4.10
2018-03-25T19:43:19.283Z,4.10
2018-03-25T19:45:47.576Z,4.00
2018-03-25T19:48:15.867Z,4.00
2018-03-25T19:50:44.196Z,4.10
2018-03-25T19:53:12.746Z,4.10
2018-03-25T19:55:41.169Z,4.10
2018-03-25T19:58:09.460Z,4.30
2018-03-25T20:00:38.682Z,4.20
2018-03-25T20:03:07.067Z,4.10
2018-03-25T20:05:36.168Z,4.10
2018-03-25T20:08:04.472Z,4.10
2018-03-25T20:10:33.554Z,4.20
2018-03-25T20:13:01.959Z,4.20
2018-03-25T20:15:30.458Z,4.30
2018-03-25T20:17:58.849Z,4.40
2018-03-25T20:20:27.514Z,4.40
2018-03-25T20:22:57.442Z,4.30
2018-03-25T20:25:26.762Z,4.60
2018-03-25T20:27:55.233Z,4.60
2018-03-25T20:30:26.219Z,4.90
2018-03-25T20:32:56.180Z,4.70
2018-03-25T20:35:24.639Z,4.70
2018-03-25T20:37:53.076Z,4.70
2018-03-25T20:40:22.595Z,4.80
2018-03-25T20:42:50.937Z,4.90
2018-03-25T20:45:19.223Z,4.80
2018-03-25T20:47:47.751Z,4.80
2018-03-25T20:50:16.430Z,4.80
2018-03-25T20:52:44.780Z,4.70
2018-03-25T20:55:13.272Z,4.80
2018-03-25T20:57:41.754Z,4.80
2018-03-25T21:00:10.369Z,4.80
2018-03-25T21:02:38.712Z,4.80
2018-03-25T21:05:06.976Z,4.90
2018-03-25T21:07:35.298Z,5.00
2018-03-25T21:10:03.599Z,5.20
2018-03-25T21:12:31.890Z,5.10
2018-03-25T21:15:00.300Z,5.10
2018-03-25T21:17:29.415Z,5.10
2018-03-25T21:19:57.798Z,5.10
2018-03-25T21:22:26.607Z,5.20
2018-03-25T21:24:55.212Z,5.10
2018-03-25T21:27:23.671Z,5.00
2018-03-25T21:29:52.827Z,4.80
2018-03-25T21:32:21.158Z,4.80
2018-03-25T21:34:49.450Z,4.80
2018-03-25T21:37:18.556Z,4.80
2018-03-25T21:39:46.974Z,4.80
2018-03-25T21:42:16.137Z,4.90
2018-03-25T21:44:45.186Z,4.90
2018-03-25T21:47:13.527Z,4.90
2018-03-25T21:49:41.854Z,5.00
2018-03-25T21:52:10.179Z,5.00
2018-03-25T21:54:38.514Z,4.90
2018-03-25T21:57:06.814Z,4.80
2018-03-25T21:59:35.158Z,4.80
2018-03-25T22:02:05.034Z,4.90
2018-03-25T22:04:33.635Z,4.90
2018-03-25T22:07:02.218Z,4.90
2018-03-25T22:09:30.878Z,4.80
2018-03-25T22:11:59.262Z,4.90
2018-03-25T22:14:29.773Z,4.80
2018-03-25T22:16:58.667Z,4.80
2018-03-25T22:19:28.507Z,4.80
2018-03-25T22:21:57.835Z,4.90
2018-03-25T22:24:26.246Z,4.90
2018-03-25T22:26:54.721Z,4.90
2018-03-25T22:29:23.247Z,4.80
2018-03-25T22:31:51.598Z,4.70
2018-03-25T22:34:19.950Z,4.60
2018-03-25T22:36:48.248Z,4.50
2018-03-25T22:39:16.850Z,4.60
2018-03-25T22:41:45.459Z,4.70
2018-03-25T22:44:13.746Z,4.60
2018-03-25T22:46:42.281Z,4.60
2018-03-25T22:49:10.604Z,4.80
2018-03-25T22:51:39.843Z,4.80
2018-03-25T22:54:08.170Z,5.00
2018-03-25T22:56:36.464Z,5.00
2018-03-25T22:59:05.546Z,4.90
2018-03-25T23:01:33.873Z,4.90
2018-03-25T23:04:02.926Z,5.20
2018-03-25T23:06:31.295Z,5.20
2018-03-25T23:08:59.722Z,5.10
2018-03-25T23:11:28.992Z,5.40
2018-03-25T23:13:57.334Z,5.30
2018-03-25T23:16:27.030Z,5.20
2018-03-25T23:18:57.373Z,5.10
2018-03-25T23:21:25.919Z,5.10
2018-03-25T23:23:55.486Z,5.10
2018-03-25T23:26:24.226Z,5.10
2018-03-25T23:28:52.820Z,5.20
2018-03-25T23:31:21.155Z,5.20
2018-03-25T23:33:49.434Z,5.10
2018-03-25T23:36:17.759Z,4.90
2018-03-25T23:38:46.067Z,4.70
2018-03-25T23:41:14.671Z,4.70
2018-03-25T23:43:44.012Z,4.90
2018-03-25T23:46:13.142Z,4.90
2018-03-25T23:48:42.287Z,4.90
2018-03-25T23:51:10.590Z,4.90
2018-03-25T23:53:38.878Z,5.00
2018-03-25T23:56:08.262Z,5.00
2018-03-25T23:58:36.551Z,5.00
